Time;durP1;ratioP1;P1;durP2;ratioP2;P2;SDS_P1;SDS_P2;PMS_P1;PMS_P2;Temp;Humidity;BMP_temperature;BMP_pressure;BME280_temperature;BME280_humidity;BME280_pressure;Samples;Min_cycle;Max_cycle;Signal;HPM_P1;HPM_P2
2022/11/01 00:01:13;;;;;;;15.63;13.57;;;14.70;48.50;;;;;;5037763;28;20166;-41
2022/11/01 00:03:38;;;;;;;18.43;14.10;;;14.70;48.50;;;;;;5038169;28;20185;-42
2022/11/01 00:06:04;;;;;;;20.37;15.17;;;14.60;48.70;;;;;;5038207;28;20197;-42
2022/11/01 00:08:30;;;;;;;15.93;13.00;;;14.60;48.60;;;;;;5039268;28;20669;-42
2022/11/01 00:11:04;;;;;;;22.63;13.67;;;14.60;48.50;;;;;;5038767;28;20423;-42
2022/11/01 00:13:30;;;;;;;17.42;15.13;;;14.60;48.30;;;;;;5036287;28;20170;-43
2022/11/01 00:15:56;;;;;;;19.08;13.75;;;14.60;48.10;;;;;;5034991;28;20174;-43
2022/11/01 00:18:22;;;;;;;17.83;15.67;;;14.60;48.00;;;;;;5035264;28;20288;-43
2022/11/01 00:20:48;;;;;;;16.10;13.30;;;14.50;48.20;;;;;;5035383;28;20408;-43
2022/11/01 00:23:14;;;;;;;21.10;14.60;;;14.50;48.50;;;;;;5035343;28;20466;-44
2022/11/01 00:25:39;;;;;;;18.43;12.60;;;14.50;48.40;;;;;;5034545;28;20178;-43
2022/11/01 00:28:05;;;;;;;18.30;14.40;;;14.50;48.40;;;;;;5035278;28;20199;-43
2022/11/01 00:30:31;;;;;;;16.30;11.70;;;14.50;48.30;;;;;;5035264;28;20575;-43
2022/11/01 00:32:57;;;;;;;17.60;13.80;;;14.40;48.20;;;;;;5035126;28;20180;-42
2022/11/01 00:35:23;;;;;;;18.20;13.30;;;14.40;48.10;;;;;;5035131;28;20405;-42
2022/11/01 00:37:49;;;;;;;18.13;14.82;;;14.40;48.30;;;;;;5034449;28;20534;-42
2022/11/01 00:40:15;;;;;;;21.13;14.80;;;14.40;48.30;;;;;;5035033;28;20208;-44
2022/11/01 00:42:41;;;;;;;19.10;13.20;;;14.30;48.40;;;;;;5049149;22;20225;-42
2022/11/01 00:45:06;;;;;;;19.60;14.03;;;14.30;48.40;;;;;;5034889;28;20601;-42
2022/11/01 00:47:32;;;;;;;16.77;14.13;;;14.30;48.50;;;;;;5014612;28;20198;-42
2022/11/01 00:49:58;;;;;;;24.00;14.57;;;14.30;48.40;;;;;;5015222;28;20408;-42
2022/11/01 00:52:24;;;;;;;15.37;11.53;;;14.30;48.40;;;;;;5015035;28;20166;-42
2022/11/01 00:54:49;;;;;;;19.20;14.40;;;14.30;48.40;;;;;;5014958;28;20670;-42
2022/11/01 00:57:15;;;;;;;16.70;13.57;;;14.30;48.00;;;;;;5014643;28;20362;-42
2022/11/01 00:59:41;;;;;;;15.80;12.40;;;14.30;47.90;;;;;;5014090;28;20178;-42
2022/11/01 01:02:07;;;;;;;14.17;11.30;;;14.30;48.00;;;;;;5014878;28;20177;-42
2022/11/01 01:04:32;;;;;;;18.43;13.40;;;14.20;47.70;;;;;;5014894;28;20245;-42
2022/11/01 01:06:58;;;;;;;17.80;13.10;;;14.10;47.90;;;;;;5014194;28;20221;-41
2022/11/01 01:09:24;;;;;;;19.03;15.60;;;14.10;47.60;;;;;;5014694;28;20166;-42
2022/11/01 01:11:49;;;;;;;14.97;11.40;;;14.10;47.70;;;;;;5014754;28;20167;-42
2022/11/01 01:14:15;;;;;;;24.00;14.20;;;14.00;47.80;;;;;;5014664;28;20216;-43
2022/11/01 01:16:41;;;;;;;20.57;14.57;;;13.90;48.70;;;;;;5014078;28;20171;-43
2022/11/01 01:19:06;;;;;;;17.30;14.33;;;13.80;48.80;;;;;;5014629;28;20175;-42
2022/11/01 01:21:32;;;;;;;20.93;14.20;;;13.80;48.60;;;;;;5014554;28;20590;-43
2022/11/01 01:23:58;;;;;;;18.43;13.93;;;13.80;48.50;;;;;;5014381;28;20268;-43
2022/11/01 01:26:23;;;;;;;15.07;12.03;;;13.80;48.50;;;;;;5013981;28;20198;-42
2022/11/01 01:28:52;;;;;;;16.47;14.03;;;13.80;48.30;;;;;;5014423;28;20618;-42
2022/11/01 01:31:18;;;;;;;20.30;16.38;;;13.80;48.20;;;;;;5014328;28;20167;-43
2022/11/01 01:33:44;;;;;;;22.10;14.50;;;13.80;48.20;;;;;;5014262;28;20646;-41
2022/11/01 01:36:10;;;;;;;20.57;12.90;;;13.80;48.10;;;;;;5013842;28;20177;-41
2022/11/01 01:38:35;;;;;;;18.77;14.07;;;13.80;48.00;;;;;;5014158;28;20650;-41
2022/11/01 01:43:46;;;;;;;17.85;14.23;;;13.80;48.10;;;;;;5014279;28;20221;-42
2022/11/01 01:46:12;;;;;;;18.42;12.45;;;13.70;48.00;;;;;;5013471;28;20203;-42
2022/11/01 01:48:41;;;;;;;16.57;14.37;;;13.70;48.60;;;;;;5014415;28;20177;-42
2022/11/01 01:51:17;;;;;;;26.75;14.27;;;13.60;47.90;;;;;;5014155;28;20203;-43
2022/11/01 01:53:52;;;;;;;16.45;14.18;;;13.60;47.80;;;;;;5013968;28;20206;-42
2022/11/01 01:56:36;;;;;;;20.45;13.73;;;13.60;47.60;;;;;;5013402;28;20166;-42
2022/11/01 01:59:05;;;;;;;19.00;14.07;;;13.60;47.50;;;;;;5014041;28;20186;-42
2022/11/01 02:01:34;;;;;;;24.92;14.82;;;13.50;47.80;;;;;;5013714;28;20206;-44
2022/11/01 02:04:01;;;;;;;16.85;13.30;;;13.40;47.80;;;;;;5013642;28;20662;-43
2022/11/01 02:06:27;;;;;;;21.73;14.75;;;13.50;48.00;;;;;;5013139;28;20206;-42
2022/11/01 02:08:58;;;;;;;25.13;15.57;;;13.40;48.10;;;;;;5013639;28;20179;-42
2022/11/01 02:11:24;;;;;;;22.20;15.10;;;13.40;48.30;;;;;;5013862;28;20159;-41
2022/11/01 02:13:49;;;;;;;22.40;14.93;;;13.40;48.70;;;;;;5013444;28;20601;-41
2022/11/01 02:16:21;;;;;;;20.70;16.10;;;13.40;48.70;;;;;;5012876;28;20170;-41
2022/11/01 02:19:07;;;;;;;31.63;17.10;;;13.40;48.90;;;;;;5013528;28;20445;-41
2022/11/01 02:21:46;;;;;;;25.23;17.35;;;13.40;48.90;;;;;;5013448;28;20178;-41
2022/11/01 02:24:48;;;;;;;20.60;16.90;;;13.50;49.10;;;;;;5013285;28;20190;-41
2022/11/01 02:27:24;;;;;;;25.02;16.77;;;13.50;49.90;;;;;;5012733;28;20190;-41
2022/11/01 02:30:32;;;;;;;27.70;18.58;;;13.50;50.40;;;;;;5013208;28;20674;-41
2022/11/01 02:33:07;;;;;;;36.42;22.38;;;13.60;53.60;;;;;;4933414;29;20653;-41
2022/11/01 02:35:45;;;;;;;32.92;24.60;;;13.80;56.20;;;;;;4933034;29;20766;-41
2022/11/01 02:38:23;;;;;;;33.53;24.90;;;14.10;55.90;;;;;;4933423;29;20165;-41
2022/11/01 02:40:54;;;;;;;35.90;23.10;;;14.40;57.70;;;;;;4933457;29;20177;-41
2022/11/01 02:43:25;;;;;;;30.70;22.92;;;14.70;56.40;;;;;;4933136;29;20284;-41
2022/11/01 02:45:51;;;;;;;34.95;22.73;;;14.90;56.30;;;;;;4932679;29;20161;-41
2022/11/01 02:48:19;;;;;;;33.13;23.80;;;15.10;55.70;;;;;;4933290;29;20184;-41
2022/11/01 02:50:55;;;;;;;33.78;21.85;;;15.30;56.30;;;;;;4933313;29;20180;-41
2022/11/01 02:53:21;;;;;;;29.13;20.48;;;15.40;55.90;;;;;;4933121;29;20260;-41
2022/11/01 02:55:46;;;;;;;32.90;20.87;;;15.40;55.50;;;;;;4932543;29;20241;-42
2022/11/01 02:58:18;;;;;;;29.20;21.47;;;15.50;55.40;;;;;;4933222;29;20492;-41
2022/11/01 03:00:45;;;;;;;30.15;20.15;;;15.60;54.50;;;;;;4933134;29;20177;-40
2022/11/01 03:03:24;;;;;;;29.08;19.80;;;15.70;54.10;;;;;;4933000;29;20695;-41
2022/11/01 03:05:56;;;;;;;31.40;19.50;;;15.80;53.60;;;;;;4924282;28;20181;-41
2022/11/01 03:08:28;;;;;;;24.33;18.02;;;15.80;53.20;;;;;;5012572;28;20167;-41
2022/11/01 03:11:15;;;;;;;25.23;19.67;;;15.90;53.30;;;;;;5012691;28;20615;-41
2022/11/01 03:14:03;;;;;;;27.67;20.33;;;15.90;53.00;;;;;;5012826;28;20226;-41
2022/11/01 03:16:46;;;;;;;20.17;17.02;;;16.00;52.80;;;;;;5011881;28;20253;-41
2022/11/01 03:19:45;;;;;;;23.58;17.52;;;16.00;52.70;;;;;;5012576;28;20630;-40
2022/11/01 03:22:17;;;;;;;24.30;18.63;;;16.00;52.30;;;;;;5012027;28;20238;-41
2022/11/01 03:25:39;;;;;;;20.77;16.25;;;15.90;52.40;;;;;;5012630;28;20189;-41
2022/11/01 03:28:37;;;;;;;27.90;18.10;;;15.90;52.40;;;;;;5012418;28;20281;-41
2022/11/01 03:31:14;;;;;;;20.42;17.02;;;15.90;52.60;;;;;;5005169;28;20182;-41
2022/11/01 03:33:47;;;;;;;25.00;17.92;;;15.90;52.60;;;;;;5012364;28;20189;-41
2022/11/01 03:36:17;;;;;;;18.65;15.52;;;15.90;52.40;;;;;;5011837;28;20208;-41
2022/11/01 03:38:53;;;;;;;25.60;16.08;;;15.90;52.30;;;;;;5012431;28;20530;-40
2022/11/01 03:41:22;;;;;;;25.85;16.85;;;16.00;52.10;;;;;;5012286;28;20167;-41
2022/11/01 03:43:48;;;;;;;19.15;15.48;;;15.90;52.30;;;;;;5012082;28;20206;-41
2022/11/01 03:46:15;;;;;;;20.58;16.05;;;15.90;52.50;;;;;;5011658;28;20209;-41
2022/11/01 03:48:41;;;;;;;26.25;15.35;;;15.90;52.30;;;;;;5012236;28;20242;-41
2022/11/01 03:51:06;;;;;;;22.10;15.70;;;15.90;52.50;;;;;;5012145;28;20258;-41
2022/11/01 03:53:33;;;;;;;19.20;15.57;;;15.90;52.30;;;;;;5012118;28;20436;-40
2022/11/01 03:55:59;;;;;;;18.83;13.23;;;15.90;52.20;;;;;;5011735;28;20413;-41
2022/11/01 03:58:40;;;;;;;18.58;14.98;;;15.90;52.00;;;;;;5012105;28;20233;-40
2022/11/01 04:01:10;;;;;;;19.85;13.55;;;16.00;51.80;;;;;;5012261;28;20179;-41
2022/11/01 04:03:36;;;;;;;19.15;12.82;;;15.90;51.60;;;;;;5011990;28;20191;-41
2022/11/01 04:06:02;;;;;;;20.13;16.07;;;15.90;51.50;;;;;;5011355;28;20221;-41
2022/11/01 04:08:28;;;;;;;17.38;14.43;;;15.90;51.50;;;;;;5011613;28;20905;-41
2022/11/01 04:10:54;;;;;;;19.13;13.10;;;15.90;51.50;;;;;;5012231;28;20266;-41
2022/11/01 04:13:19;;;;;;;19.23;14.20;;;15.90;51.50;;;;;;5011994;28;20187;-41
2022/11/01 04:21:17;;;;;;;19.02;13.40;;;15.70;51.60;;;;;;5011883;28;20166;-41
2022/11/01 04:23:43;;;;;;;20.98;13.63;;;15.70;51.50;;;;;;5011740;28;20709;-40
2022/11/01 04:26:21;;;;;;;17.92;14.15;;;15.70;51.50;;;;;;5011289;28;20293;-40
2022/11/01 04:28:57;;;;;;;20.17;12.70;;;15.70;51.30;;;;;;5011935;28;20201;-41
2022/11/01 04:31:29;;;;;;;15.50;12.48;;;15.70;51.40;;;;;;5011859;28;20155;-40
2022/11/01 04:33:56;;;;;;;19.20;14.38;;;15.60;51.40;;;;;;5011759;28;20190;-40
2022/11/01 04:36:22;;;;;;;16.90;13.20;;;15.60;51.50;;;;;;5014966;28;20171;-41
2022/11/01 04:38:56;;;;;;;14.95;12.50;;;15.60;51.40;;;;;;5015531;28;20186;-41
2022/11/01 04:41:24;;;;;;;15.13;12.30;;;15.60;51.40;;;;;;5015050;28;20155;-40
2022/11/01 04:43:52;;;;;;;16.80;12.68;;;15.50;51.70;;;;;;5014711;28;20217;-41
2022/11/01 04:46:18;;;;;;;18.40;12.88;;;15.50;52.30;;;;;;5014554;28;20207;-41
2022/11/01 04:48:44;;;;;;;17.50;12.10;;;15.50;51.60;;;;;;5015327;28;20249;-41
2022/11/01 04:51:10;;;;;;;14.77;12.10;;;15.40;51.90;;;;;;5015459;28;20210;-41
2022/11/01 04:53:36;;;;;;;19.05;12.50;;;15.30;51.90;;;;;;5015062;28;20191;-41
2022/11/01 04:56:03;;;;;;;14.80;11.43;;;15.30;52.10;;;;;;5014555;28;20765;-41
2022/11/01 04:58:29;;;;;;;14.25;11.68;;;15.30;52.00;;;;;;5015320;28;20433;-41
2022/11/01 05:00:55;;;;;;;13.03;10.50;;;15.30;51.80;;;;;;5015288;28;20538;-41
2022/11/01 05:03:21;;;;;;;16.90;11.97;;;15.30;51.70;;;;;;5016693;28;20492;-41
2022/11/01 05:05:46;;;;;;;17.80;13.23;;;15.30;51.70;;;;;;5016244;28;20527;-40
2022/11/01 05:08:13;;;;;;;16.23;13.03;;;15.40;51.60;;;;;;5017395;28;20205;-41
2022/11/01 05:10:43;;;;;;;18.38;13.15;;;15.30;51.70;;;;;;5016007;28;20262;-41
2022/11/01 05:13:11;;;;;;;16.25;12.55;;;15.40;51.50;;;;;;5014571;28;20619;-40
2022/11/01 05:15:37;;;;;;;17.60;12.43;;;15.30;51.50;;;;;;5014139;28;20175;-41
2022/11/01 05:18:03;;;;;;;17.53;12.30;;;15.40;51.40;;;;;;5014810;28;20627;-41
2022/11/01 05:20:29;;;;;;;18.58;12.70;;;15.40;51.40;;;;;;5014494;28;20416;-40
2022/11/01 05:22:59;;;;;;;18.25;13.85;;;15.40;51.30;;;;;;5014366;28;20199;-40
2022/11/01 05:25:25;;;;;;;17.30;11.25;;;15.40;51.30;;;;;;5014453;28;20266;-42
2022/11/01 05:27:56;;;;;;;14.30;10.65;;;15.40;51.30;;;;;;5013682;28;20728;-40
2022/11/01 05:30:22;;;;;;;17.40;12.18;;;15.40;51.10;;;;;;5014601;28;20269;-41
2022/11/01 05:32:47;;;;;;;17.17;11.53;;;15.40;51.00;;;;;;5014082;28;20266;-41
2022/11/01 05:35:13;;;;;;;15.33;11.53;;;15.30;51.30;;;;;;5014223;28;20581;-41
2022/11/01 05:37:39;;;;;;;16.67;11.40;;;15.40;51.40;;;;;;5013672;28;20174;-40
2022/11/01 05:40:05;;;;;;;18.00;11.40;;;15.30;51.30;;;;;;5014153;28;20170;-41
2022/11/01 05:42:31;;;;;;;16.73;12.98;;;15.30;51.30;;;;;;5014147;28;20194;-41
2022/11/01 05:44:57;;;;;;;14.87;11.23;;;15.30;51.30;;;;;;5014602;28;20684;-41
2022/11/01 05:47:22;;;;;;;18.07;12.97;;;15.40;51.10;;;;;;5013371;28;20226;-40
2022/11/01 05:49:48;;;;;;;15.40;12.10;;;15.40;51.00;;;;;;5014056;28;20167;-41
2022/11/01 05:52:14;;;;;;;16.80;11.40;;;15.40;50.90;;;;;;5013885;28;20242;-40
2022/11/01 05:54:39;;;;;;;14.80;10.63;;;15.40;50.90;;;;;;5014494;28;20177;-41
2022/11/01 05:57:05;;;;;;;15.73;11.77;;;15.40;50.80;;;;;;5013365;28;20646;-40
2022/11/01 05:59:31;;;;;;;14.33;11.10;;;15.40;50.80;;;;;;5013939;28;20171;-41
2022/11/01 06:01:57;;;;;;;17.53;12.70;;;15.40;50.90;;;;;;5013732;28;20178;-41
2022/11/01 06:04:22;;;;;;;17.93;11.50;;;15.40;51.10;;;;;;5013638;28;20281;-41
2022/11/01 06:06:48;;;;;;;20.67;12.53;;;15.40;51.10;;;;;;5013450;28;20209;-41
2022/11/01 06:09:14;;;;;;;14.30;10.63;;;15.40;50.90;;;;;;5013659;28;20162;-40
2022/11/01 06:11:39;;;;;;;17.57;12.63;;;15.40;50.80;;;;;;5014080;28;20238;-41
2022/11/01 06:14:05;;;;;;;16.77;13.07;;;15.50;50.90;;;;;;5013489;28;20692;-41
2022/11/01 06:16:31;;;;;;;17.97;11.80;;;15.40;50.70;;;;;;5012885;28;20166;-40
2022/11/01 06:18:56;;;;;;;19.87;13.73;;;15.40;50.90;;;;;;5013410;28;20175;-41
2022/11/01 06:21:22;;;;;;;19.00;12.47;;;15.40;50.80;;;;;;5013666;28;20178;-40
2022/11/01 06:23:49;;;;;;;17.43;11.70;;;15.40;51.00;;;;;;5013247;28;20205;-40
2022/11/01 06:26:16;;;;;;;17.38;12.32;;;15.40;50.90;;;;;;5012971;28;20220;-41
2022/11/01 06:28:42;;;;;;;24.25;14.95;;;15.40;51.00;;;;;;5013347;28;20538;-40
2022/11/01 06:31:08;;;;;;;17.23;12.70;;;15.40;51.20;;;;;;5013226;28;20170;-40
2022/11/01 06:33:34;;;;;;;19.83;13.30;;;15.40;51.90;;;;;;5013164;28;20432;-40
2022/11/01 06:36:01;;;;;;;19.57;12.70;;;15.40;51.30;;;;;;5012795;28;20173;-41
2022/11/01 06:38:27;;;;;;;16.52;12.85;;;15.40;51.30;;;;;;5013175;28;20842;-41
2022/11/01 06:40:53;;;;;;;19.33;13.00;;;15.50;51.40;;;;;;5013648;28;20175;-41
2022/11/01 06:43:18;;;;;;;18.27;13.83;;;15.60;51.30;;;;;;5013619;28;20215;-41
2022/11/01 06:45:44;;;;;;;19.33;13.37;;;15.60;51.20;;;;;;5013440;28;20182;-41
2022/11/01 06:48:10;;;;;;;15.80;11.97;;;15.70;51.10;;;;;;5013174;28;20206;-41
2022/11/01 06:50:36;;;;;;;17.00;11.93;;;15.70;51.00;;;;;;5012860;28;20175;-42
2022/11/01 06:53:01;;;;;;;18.67;13.10;;;15.70;51.00;;;;;;5012711;28;20241;-44
2022/11/01 06:55:28;;;;;;;17.97;12.57;;;15.70;51.00;;;;;;5012786;28;20178;-40
2022/11/01 06:57:56;;;;;;;20.38;12.85;;;15.80;51.00;;;;;;5011901;28;20832;-43
2022/11/01 07:00:22;;;;;;;19.73;13.50;;;15.80;51.00;;;;;;5012941;28;20178;-43
2022/11/01 07:02:48;;;;;;;17.48;13.45;;;15.80;50.80;;;;;;5012662;28;20190;-43
2022/11/01 07:05:13;;;;;;;17.97;12.80;;;15.80;50.80;;;;;;5012808;28;20589;-42
2022/11/01 07:07:40;;;;;;;17.07;13.10;;;15.90;50.80;;;;;;5012171;28;20208;-41
2022/11/01 07:10:07;;;;;;;20.17;13.15;;;15.80;50.60;;;;;;5012777;28;20174;-42
2022/11/01 07:12:33;;;;;;;15.55;11.63;;;15.80;50.90;;;;;;5012646;28;20202;-41
2022/11/01 07:14:59;;;;;;;14.63;11.10;;;15.80;50.90;;;;;;5012574;28;20259;-41
2022/11/01 07:17:25;;;;;;;16.60;12.60;;;15.90;50.80;;;;;;5012355;28;20209;-41
2022/11/01 07:19:51;;;;;;;17.13;12.30;;;16.00;50.60;;;;;;5012465;28;20539;-41
2022/11/01 07:22:17;;;;;;;17.43;12.10;;;16.00;50.40;;;;;;5012265;28;20568;-42
2022/11/01 07:24:43;;;;;;;14.73;12.57;;;16.10;50.30;;;;;;5012671;28;20179;-43
2022/11/01 07:27:08;;;;;;;18.77;12.23;;;16.20;50.10;;;;;;5012097;28;20233;-43
2022/11/01 07:29:34;;;;;;;15.03;11.70;;;16.30;50.10;;;;;;5012553;28;20645;-43
2022/11/01 07:32:00;;;;;;;15.07;11.37;;;16.30;50.00;;;;;;5012324;28;20171;-41
2022/11/01 07:34:25;;;;;;;15.37;11.20;;;16.40;49.70;;;;;;5012297;28;20196;-42
2022/11/01 07:36:52;;;;;;;15.80;11.43;;;16.50;49.90;;;;;;5011743;28;20524;-43
2022/11/01 07:39:17;;;;;;;13.50;10.05;;;16.50;49.70;;;;;;5012435;28;20202;-42
2022/11/01 07:41:43;;;;;;;19.77;12.00;;;16.70;49.40;;;;;;5012179;28;20594;-42
2022/11/01 07:44:09;;;;;;;14.47;10.23;;;16.70;49.10;;;;;;5012067;28;20214;-42
2022/11/01 07:46:35;;;;;;;17.83;12.13;;;16.80;49.00;;;;;;5011522;28;20190;-43
2022/11/01 07:49:00;;;;;;;14.10;11.20;;;16.80;48.90;;;;;;5012446;28;20171;-42
2022/11/01 07:51:27;;;;;;;13.70;11.10;;;16.90;49.00;;;;;;5012109;28;20250;-41
2022/11/01 07:53:53;;;;;;;16.58;11.07;;;16.80;48.70;;;;;;5012246;28;20190;-41
2022/11/01 07:56:20;;;;;;;15.52;11.00;;;16.90;48.60;;;;;;5011554;28;20201;-42
2022/11/01 07:58:46;;;;;;;17.17;11.40;;;16.90;49.00;;;;;;5012063;28;20181;-41
2022/11/01 08:01:12;;;;;;;16.77;10.13;;;16.90;48.80;;;;;;5011971;28;20182;-43
2022/11/01 08:03:37;;;;;;;15.00;12.40;;;17.00;48.80;;;;;;5012308;28;20514;-41
2022/11/01 08:06:03;;;;;;;14.67;10.63;;;17.00;48.70;;;;;;5011529;28;20639;-43
2022/11/01 08:08:29;;;;;;;14.50;10.53;;;17.10;48.90;;;;;;5013206;28;20197;-43
2022/11/01 08:10:55;;;;;;;13.57;10.17;;;17.20;48.10;;;;;;5015808;28;20636;-42
2022/11/01 08:13:24;;;;;;;11.43;9.60;;;17.30;48.40;;;;;;5015811;28;20187;-42
2022/11/01 08:15:51;;;;;;;13.50;9.75;;;17.40;48.00;;;;;;5015024;28;20178;-42
2022/11/01 08:18:23;;;;;;;16.80;11.73;;;17.40;48.10;;;;;;5015696;28;20167;-41
2022/11/01 08:20:49;;;;;;;12.32;9.77;;;17.50;47.50;;;;;;5015952;28;20163;-42
2022/11/01 08:23:15;;;;;;;11.68;9.18;;;17.60;48.00;;;;;;5015505;28;20206;-42
2022/11/01 08:25:41;;;;;;;12.77;9.35;;;17.70;48.10;;;;;;5014904;28;20185;-42
2022/11/01 08:28:10;;;;;;;15.87;11.43;;;17.80;47.80;;;;;;5015496;28;20203;-42
2022/11/01 08:30:38;;;;;;;12.07;9.93;;;17.90;47.40;;;;;;5015444;28;20174;-42
2022/11/01 08:33:04;;;;;;;14.23;10.52;;;18.10;47.30;;;;;;5015309;28;20194;-44
2022/11/01 08:35:31;;;;;;;13.43;10.60;;;18.20;46.60;;;;;;5015048;28;20690;-45
2022/11/01 08:37:58;;;;;;;16.10;10.35;;;18.30;46.50;;;;;;5015407;28;20206;-42
2022/11/01 08:40:24;;;;;;;15.43;11.25;;;18.40;46.40;;;;;;5015310;28;20676;-41
2022/11/01 08:42:50;;;;;;;18.42;10.98;;;18.50;45.50;;;;;;5015268;28;20222;-43
2022/11/01 08:45:16;;;;;;;20.23;10.85;;;18.60;45.60;;;;;;5015084;28;20198;-43
2022/11/01 08:47:42;;;;;;;12.87;11.27;;;18.80;45.40;;;;;;5014468;28;20229;-41
2022/11/01 08:50:10;;;;;;;17.83;12.10;;;18.80;44.50;;;;;;5015046;28;20406;-40
2022/11/01 08:52:35;;;;;;;14.00;11.25;;;19.20;44.50;;;;;;5014997;28;20781;-43
2022/11/01 08:55:02;;;;;;;15.53;11.50;;;19.40;43.70;;;;;;5014981;28;20178;-42
2022/11/01 08:57:28;;;;;;;14.63;11.07;;;19.40;43.80;;;;;;5014658;28;20258;-42
2022/11/01 08:59:53;;;;;;;16.13;11.10;;;19.40;43.40;;;;;;5014937;28;20178;-42
2022/11/01 09:02:19;;;;;;;17.83;11.23;;;19.30;43.40;;;;;;5014809;28;20401;-42
2022/11/01 09:04:45;;;;;;;14.83;12.03;;;19.20;43.80;;;;;;5015063;28;20217;-41
2022/11/01 09:07:10;;;;;;;17.20;11.67;;;19.10;44.00;;;;;;5014142;28;20198;-41
2022/11/01 09:09:36;;;;;;;16.87;11.60;;;19.00;44.30;;;;;;5014864;28;20171;-42
2022/11/01 09:12:06;;;;;;;15.47;12.83;;;19.00;44.60;;;;;;5014744;28;20167;-42
2022/11/01 09:14:32;;;;;;;17.55;12.40;;;19.10;45.00;;;;;;5014614;28;20202;-42
2022/11/01 09:16:57;;;;;;;14.73;11.40;;;19.20;44.90;;;;;;5014543;28;20248;-42
2022/11/01 09:19:23;;;;;;;11.17;10.00;;;19.20;44.00;;;;;;5014648;28;20226;-42
2022/11/01 09:21:49;;;;;;;15.57;11.53;;;19.20;44.70;;;;;;5013912;28;20171;-42
2022/11/01 09:24:16;;;;;;;18.03;12.87;;;19.20;44.50;;;;;;5014660;28;20487;-42
2022/11/01 09:26:42;;;;;;;14.90;11.38;;;19.30;44.60;;;;;;5013747;28;20913;-42
2022/11/01 09:29:09;;;;;;;13.10;9.40;;;19.30;44.80;;;;;;5014373;28;20166;-42
2022/11/01 09:31:35;;;;;;;13.00;10.15;;;19.30;44.80;;;;;;5014297;28;20174;-42
2022/11/01 09:34:01;;;;;;;12.70;10.18;;;19.30;44.70;;;;;;5014480;28;20199;-42
2022/11/01 09:36:28;;;;;;;15.10;10.13;;;19.30;44.50;;;;;;5014072;28;20222;-42
2022/11/01 09:38:55;;;;;;;18.75;12.05;;;19.30;45.00;;;;;;5014208;28;20444;-42
2022/11/01 09:41:44;;;;;;;15.50;11.70;;;19.40;45.10;;;;;;5014497;28;20627;-42
2022/11/01 09:44:16;;;;;;;13.65;10.05;;;19.40;44.90;;;;;;5013946;28;20214;-44
2022/11/01 09:46:47;;;;;;;12.27;10.48;;;19.40;44.70;;;;;;5013384;28;20663;-42
2022/11/01 09:49:20;;;;;;;14.75;10.88;;;19.50;44.50;;;;;;4997029;28;20174;-41
2022/11/01 09:51:46;;;;;;;15.10;11.80;;;19.50;44.40;;;;;;5013984;28;20182;-42
2022/11/01 09:54:12;;;;;;;14.67;11.17;;;19.50;44.80;;;;;;5013316;28;20187;-42
2022/11/01 09:56:50;;;;;;;12.77;9.23;;;19.40;44.50;;;;;;5013357;28;20225;-42
2022/11/01 09:59:24;;;;;;;16.95;11.50;;;19.40;44.60;;;;;;5013879;28;20413;-42
2022/11/01 10:02:08;;;;;;;15.63;10.90;;;19.40;44.70;;;;;;5013766;28;20162;-43
2022/11/01 10:04:53;;;;;;;13.05;10.88;;;19.50;44.90;;;;;;5014398;28;20217;-43
2022/11/01 10:07:44;;;;;;;12.90;9.45;;;19.50;44.90;;;;;;5012982;28;20206;-42
2022/11/01 10:10:42;;;;;;;18.08;11.35;;;19.50;44.90;;;;;;5013585;28;20175;-42
2022/11/01 10:13:08;;;;;;;15.07;10.68;;;19.50;44.80;;;;;;5013356;28;20214;-42
2022/11/01 10:16:18;;;;;;;19.53;12.67;;;19.50;45.00;;;;;;5013051;28;20264;-41
2022/11/01 10:19:14;;;;;;;13.73;12.23;;;19.50;44.90;;;;;;4996353;28;20187;-42
2022/11/01 10:21:51;;;;;;;14.18;11.88;;;19.60;45.00;;;;;;4990589;28;20175;-42
2022/11/01 10:24:39;;;;;;;15.80;11.77;;;19.50;45.10;;;;;;4991391;28;20202;-42
2022/11/01 10:27:30;;;;;;;14.35;10.80;;;19.60;45.30;;;;;;4990761;28;20202;-42
2022/11/01 10:30:12;;;;;;;16.02;12.70;;;19.60;45.10;;;;;;4991341;28;20215;-42
2022/11/01 10:33:00;;;;;;;12.10;10.80;;;19.60;45.30;;;;;;4990401;28;20192;-42
2022/11/01 10:35:45;;;;;;;17.30;13.25;;;19.60;45.40;;;;;;4991132;28;20163;-42
2022/11/01 10:38:39;;;;;;;22.23;12.43;;;19.60;45.40;;;;;;4991387;28;20164;-42
2022/11/01 10:41:35;;;;;;;21.08;11.77;;;19.70;45.10;;;;;;4991119;28;20180;-42
2022/11/01 10:44:08;;;;;;;17.60;12.63;;;19.70;44.90;;;;;;4991040;28;20203;-42
2022/11/01 10:46:38;;;;;;;19.52;12.95;;;19.70;45.10;;;;;;4990370;28;20609;-40
2022/11/01 10:49:15;;;;;;;16.65;11.90;;;19.70;45.00;;;;;;4991094;28;20160;-42
2022/11/01 10:51:42;;;;;;;16.70;11.93;;;19.70;44.90;;;;;;4994103;28;20213;-42
2022/11/01 10:54:16;;;;;;;18.58;11.90;;;19.70;45.00;;;;;;5012685;28;20186;-41
2022/11/01 10:56:45;;;;;;;17.15;12.77;;;19.80;45.20;;;;;;5012178;28;20256;-41
2022/11/01 10:59:23;;;;;;;15.55;11.95;;;19.90;45.30;;;;;;5012836;28;20174;-42
2022/11/01 11:01:51;;;;;;;18.15;11.80;;;20.00;45.00;;;;;;5012795;28;20251;-42
2022/11/01 11:04:21;;;;;;;17.77;12.10;;;20.00;44.90;;;;;;5012838;28;20191;-42
2022/11/01 11:06:47;;;;;;;16.65;11.00;;;20.10;45.10;;;;;;5011923;28;20198;-42
2022/11/01 11:09:23;;;;;;;20.13;12.30;;;20.10;44.90;;;;;;5012637;28;20749;-42
2022/11/01 11:11:50;;;;;;;16.00;11.40;;;20.10;44.40;;;;;;5012635;28;20163;-42
2022/11/01 11:14:18;;;;;;;17.02;12.60;;;20.20;44.50;;;;;;5012537;28;20198;-42
2022/11/01 11:16:51;;;;;;;14.57;12.48;;;20.20;44.70;;;;;;5012216;28;20174;-41
2022/11/01 11:19:29;;;;;;;13.15;11.75;;;20.20;44.60;;;;;;5012447;28;20174;-42
2022/11/01 11:21:56;;;;;;;17.83;12.00;;;20.30;44.40;;;;;;5012424;28;20729;-41
2022/11/01 11:24:33;;;;;;;13.98;11.88;;;20.20;44.30;;;;;;5012320;28;20651;-42
2022/11/01 11:27:01;;;;;;;16.13;11.48;;;20.20;44.60;;;;;;5011822;28;20205;-42
2022/11/01 11:29:47;;;;;;;14.07;11.77;;;20.30;44.90;;;;;;5012458;28;20206;-42
2022/11/01 11:32:34;;;;;;;15.73;11.93;;;20.30;45.00;;;;;;5012343;28;20179;-42
2022/11/01 11:35:18;;;;;;;15.80;11.25;;;20.50;44.50;;;;;;5012446;28;20175;-42
2022/11/01 11:38:04;;;;;;;17.17;12.20;;;20.60;43.90;;;;;;5011984;28;20225;-42
2022/11/01 11:40:41;;;;;;;12.95;11.05;;;20.60;43.70;;;;;;5012158;28;20175;-42
2022/11/01 11:43:29;;;;;;;17.10;10.13;;;20.70;43.90;;;;;;5012566;28;20313;-42
2022/11/01 11:46:11;;;;;;;11.40;10.20;;;20.70;43.90;;;;;;5003088;28;20569;-42
2022/11/01 11:48:57;;;;;;;14.88;11.88;;;20.80;44.10;;;;;;5016407;28;20175;-42
2022/11/01 11:51:26;;;;;;;19.15;12.07;;;20.80;43.60;;;;;;5016552;28;20163;-42
2022/11/01 11:54:22;;;;;;;18.98;12.27;;;20.80;43.80;;;;;;5016403;28;20637;-41
2022/11/01 11:57:05;;;;;;;13.07;9.65;;;20.80;43.20;;;;;;5015516;28;20224;-42
2022/11/01 11:59:32;;;;;;;12.95;10.48;;;20.80;43.80;;;;;;5016179;28;20198;-42
2022/11/01 12:02:01;;;;;;;14.67;11.17;;;20.80;43.60;;;;;;5016134;28;20244;-42
2022/11/01 12:04:32;;;;;;;13.07;10.77;;;20.70;43.70;;;;;;5016210;28;20453;-42
2022/11/01 12:06:58;;;;;;;15.93;11.30;;;20.70;43.70;;;;;;5015444;28;20206;-42
2022/11/01 12:09:44;;;;;;;14.70;10.90;;;20.70;44.10;;;;;;5015876;28;20228;-42
2022/11/01 12:12:25;;;;;;;15.53;11.93;;;20.80;44.00;;;;;;5015771;28;20506;-42
2022/11/01 12:14:52;;;;;;;15.05;13.18;;;20.70;44.00;;;;;;5015955;28;20484;-42
2022/11/01 12:17:33;;;;;;;18.73;12.05;;;20.70;44.30;;;;;;5015146;28;20791;-42
2022/11/01 12:20:03;;;;;;;15.20;11.07;;;20.80;44.40;;;;;;5015766;28;20158;-42
2022/11/01 12:22:32;;;;;;;17.77;11.23;;;20.80;44.10;;;;;;5015572;28;20433;-42
2022/11/01 12:25:04;;;;;;;15.80;11.37;;;20.70;44.00;;;;;;5015797;28;20420;-42
2022/11/01 12:27:33;;;;;;;15.27;11.82;;;20.70;44.20;;;;;;5015214;28;20455;-42
2022/11/01 12:30:14;;;;;;;15.30;12.50;;;20.80;44.10;;;;;;5015585;28;20228;-42
2022/11/01 12:32:55;;;;;;;14.10;11.80;;;20.80;44.10;;;;;;5015418;28;20558;-42
2022/11/01 12:35:31;;;;;;;13.97;10.40;;;20.80;43.70;;;;;;5015258;28;20398;-42
2022/11/01 12:38:11;;;;;;;14.67;11.20;;;20.70;43.90;;;;;;5015185;28;20483;-42
2022/11/01 12:40:39;;;;;;;14.48;11.35;;;20.80;44.00;;;;;;5015375;28;20495;-42
2022/11/01 12:43:18;;;;;;;14.85;11.85;;;20.70;44.00;;;;;;5015075;28;20222;-42
2022/11/01 12:45:49;;;;;;;14.10;10.45;;;20.80;44.10;;;;;;5015079;28;20159;-42
2022/11/01 12:48:38;;;;;;;14.20;11.35;;;20.80;43.80;;;;;;5015422;28;20206;-41
2022/11/01 12:51:26;;;;;;;12.88;11.38;;;20.70;43.80;;;;;;5015191;28;20734;-41
2022/11/01 12:53:56;;;;;;;12.45;9.95;;;20.70;44.10;;;;;;5015114;28;20249;-42